createdAt,value
2018-01-14T00:01:37.111Z,14.90
2018-01-14T00:04:04.268Z,15.70
2018-01-14T00:06:30.583Z,14.97
2018-01-14T00:08:57.567Z,15.57
2018-01-14T00:11:23.814Z,14.33
2018-01-14T00:13:50.850Z,14.07
2018-01-14T00:16:17.121Z,15.13
2018-01-14T00:18:43.342Z,14.30
2018-01-14T00:21:10.520Z,15.10
2018-01-14T00:23:43.352Z,14.80
2018-01-14T00:26:09.559Z,13.13
2018-01-14T00:28:35.788Z,14.83
2018-01-14T00:31:02.916Z,13.63
2018-01-14T00:33:29.847Z,13.30
2018-01-14T00:35:56.819Z,16.10
2018-01-14T00:38:24.092Z,13.97
2018-01-14T00:40:50.306Z,15.33
2018-01-14T00:43:18.012Z,14.60
2018-01-14T00:45:45.230Z,13.83
2018-01-14T00:48:11.486Z,14.50
2018-01-14T01:00:22.758Z,14.07
2018-01-14T01:02:49.241Z,15.60
2018-01-14T01:05:15.451Z,13.43
2018-01-14T01:07:41.648Z,13.80
2018-01-14T01:10:07.840Z,14.13
2018-01-14T01:12:34.026Z,14.83
2018-01-14T01:15:00.959Z,15.17
2018-01-14T01:17:29.619Z,14.70
2018-01-14T01:19:55.842Z,14.13
2018-01-14T01:22:22.060Z,13.87
2018-01-14T01:24:49.211Z,13.03
2018-01-14T01:27:15.430Z,13.10
2018-01-14T01:29:41.843Z,13.70
2018-01-14T01:41:54.046Z,10.10
2018-01-14T01:44:20.206Z,12.80
2018-01-14T01:46:48.499Z,12.40
2018-01-14T01:49:15.764Z,11.10
2018-01-14T01:51:42.642Z,12.70
2018-01-14T01:54:08.846Z,13.18
2018-01-14T01:56:35.060Z,13.50
2018-01-14T01:59:02.119Z,13.20
2018-01-14T02:01:28.320Z,12.77
2018-01-14T02:03:55.486Z,12.87
2018-01-14T02:06:22.458Z,12.50
2018-01-14T02:08:48.687Z,12.93
2018-01-14T02:11:17.462Z,12.27
2018-01-14T02:13:43.696Z,12.87
2018-01-14T02:16:09.881Z,13.37
2018-01-14T02:18:36.195Z,13.07
2018-01-14T02:21:04.094Z,14.13
2018-01-14T02:23:30.275Z,13.23
2018-01-14T02:25:57.150Z,13.93
2018-01-14T02:28:23.363Z,13.70
2018-01-14T02:30:49.621Z,13.83
2018-01-14T02:43:01.608Z,12.50
2018-01-14T02:45:27.941Z,12.45
2018-01-14T02:47:54.189Z,12.37
2018-01-14T02:50:20.412Z,13.80
2018-01-14T02:52:46.626Z,14.68
2018-01-14T02:55:12.850Z,13.23
2018-01-14T02:57:39.877Z,14.68
2018-01-14T03:00:06.075Z,12.63
2018-01-14T03:02:32.737Z,12.27
2018-01-14T03:04:59.097Z,13.25
2018-01-14T03:07:26.143Z,13.07
2018-01-14T03:09:53.100Z,13.00
2018-01-14T03:12:20.153Z,14.03
2018-01-14T03:14:46.350Z,11.87
2018-01-14T03:17:13.298Z,12.82
2018-01-14T03:19:40.244Z,15.50
2018-01-14T03:22:06.514Z,14.45
2018-01-14T03:24:32.758Z,13.20
2018-01-14T03:26:59.023Z,13.82
2018-01-14T03:29:27.142Z,14.23
2018-01-14T03:31:53.390Z,14.45
2018-01-14T03:34:19.661Z,13.90
2018-01-14T03:36:45.875Z,14.27
2018-01-14T03:39:12.138Z,14.93
2018-01-14T03:41:39.090Z,14.77
2018-01-14T03:44:06.019Z,14.32
2018-01-14T03:46:32.961Z,15.30
2018-01-14T03:48:59.200Z,15.00
2018-01-14T03:51:27.758Z,16.20
2018-01-14T03:53:54.841Z,14.93
2018-01-14T03:56:21.803Z,15.38
2018-01-14T03:58:47.978Z,15.90
2018-01-14T04:01:15.200Z,17.37
2018-01-14T04:03:41.429Z,14.87
2018-01-14T04:06:07.661Z,15.52
2018-01-14T04:08:33.906Z,15.57
2018-01-14T04:11:00.536Z,17.70
2018-01-14T04:13:26.816Z,16.83
2018-01-14T04:15:53.767Z,16.73
2018-01-14T04:18:20.706Z,17.02
2018-01-14T04:20:48.521Z,16.20
2018-01-14T04:23:14.750Z,16.30
2018-01-14T04:25:40.966Z,16.55
2018-01-14T04:28:07.235Z,16.73
2018-01-14T04:30:33.438Z,15.80
2018-01-14T04:32:59.682Z,16.67
2018-01-14T04:35:25.883Z,16.02
2018-01-14T04:37:52.121Z,17.45
2018-01-14T04:40:18.333Z,16.73
2018-01-14T04:42:45.746Z,17.48
2018-01-14T04:45:12.662Z,18.10
2018-01-14T04:47:38.860Z,18.37
2018-01-14T04:50:05.074Z,16.80
2018-01-14T04:52:32.023Z,17.75
2018-01-14T04:54:58.217Z,19.00
2018-01-14T04:57:24.402Z,17.20
2018-01-14T04:59:50.624Z,19.45
2018-01-14T05:02:16.874Z,18.77
2018-01-14T05:04:43.079Z,17.98
2018-01-14T05:07:09.251Z,18.20
2018-01-14T05:09:35.605Z,18.70
2018-01-14T05:12:02.578Z,19.33
2018-01-14T05:14:29.749Z,17.70
2018-01-14T05:16:55.913Z,19.30
2018-01-14T05:19:22.191Z,18.12
2018-01-14T05:21:48.417Z,19.13
2018-01-14T05:24:14.973Z,20.40
2018-01-14T05:26:42.083Z,17.60
2018-01-14T05:29:09.009Z,18.50
2018-01-14T05:31:35.241Z,20.30
2018-01-14T05:34:01.487Z,19.85
2018-01-14T05:36:28.985Z,18.58
2018-01-14T05:38:55.981Z,20.35
2018-01-14T05:41:22.181Z,18.33
2018-01-14T05:43:48.603Z,19.55
2018-01-14T05:46:15.608Z,18.75
2018-01-14T05:48:42.884Z,19.55
2018-01-14T05:51:09.076Z,20.60
2018-01-14T05:53:35.321Z,19.15
2018-01-14T05:56:02.562Z,20.35
2018-01-14T05:58:29.542Z,19.92
2018-01-14T06:00:55.740Z,20.40
2018-01-14T06:03:22.670Z,20.70
2018-01-14T06:05:48.872Z,20.37
2018-01-14T06:08:15.839Z,19.52
2018-01-14T06:10:42.963Z,18.65
2018-01-14T06:13:09.200Z,19.25
2018-01-14T06:15:35.919Z,18.70
2018-01-14T06:18:02.152Z,18.85
2018-01-14T06:20:28.346Z,19.50
2018-01-14T06:22:56.215Z,19.30
2018-01-14T06:25:23.156Z,19.10
2018-01-14T06:27:50.596Z,18.37
2018-01-14T06:30:16.798Z,21.27
2018-01-14T06:32:43.912Z,18.87
2018-01-14T06:35:10.162Z,20.58
2018-01-14T06:37:37.361Z,19.17
2018-01-14T06:40:04.250Z,18.75
2018-01-14T06:42:30.937Z,18.80
2018-01-14T06:44:58.338Z,20.17
2018-01-14T06:47:25.601Z,20.53
2018-01-14T06:49:51.827Z,18.37
2018-01-14T06:52:18.231Z,19.00
2018-01-14T06:54:44.502Z,18.73
2018-01-14T06:57:10.783Z,18.37
2018-01-14T06:59:37.704Z,18.20
2018-01-14T07:02:03.996Z,18.50
2018-01-14T07:04:30.602Z,18.50
2018-01-14T07:06:57.571Z,18.70
2018-01-14T07:09:23.874Z,19.30
2018-01-14T07:11:50.836Z,18.42
2018-01-14T07:14:17.782Z,18.45
2018-01-14T07:16:45.104Z,16.95
2018-01-14T07:19:11.371Z,17.60
2018-01-14T07:21:37.632Z,17.10
2018-01-14T07:24:03.900Z,17.42
2018-01-14T07:26:30.138Z,17.30
2018-01-14T07:28:57.232Z,18.50
2018-01-14T07:31:23.464Z,15.45
2018-01-14T07:33:49.720Z,19.12
2018-01-14T07:36:17.341Z,18.10
2018-01-14T07:38:45.080Z,17.92
2018-01-14T07:41:12.122Z,18.60
2018-01-14T07:43:39.508Z,17.70
2018-01-14T07:46:05.735Z,16.52
2018-01-14T07:48:31.976Z,16.95
2018-01-14T07:50:58.405Z,19.20
2018-01-14T07:53:24.668Z,18.85
2018-01-14T07:55:50.905Z,17.05
2018-01-14T07:58:17.119Z,18.23
2018-01-14T08:00:43.413Z,16.90
2018-01-14T08:03:10.003Z,18.45
2018-01-14T08:05:36.278Z,18.10
2018-01-14T08:08:02.504Z,16.52
2018-01-14T08:10:29.737Z,18.77
2018-01-14T08:12:56.875Z,17.37
2018-01-14T08:15:23.093Z,15.73
2018-01-14T08:17:49.268Z,16.80
2018-01-14T08:20:16.316Z,16.27
2018-01-14T08:22:42.542Z,17.37
2018-01-14T08:25:09.502Z,16.70
2018-01-14T08:27:35.743Z,17.77
2018-01-14T08:30:02.485Z,17.42
2018-01-14T08:32:29.822Z,17.23
2018-01-14T08:34:56.577Z,18.63
2018-01-14T08:37:22.786Z,16.50
2018-01-14T08:39:49.011Z,16.73
2018-01-14T08:42:16.093Z,19.77
2018-01-14T08:44:42.326Z,17.62
2018-01-14T08:47:08.524Z,17.73
2018-01-14T08:49:34.728Z,15.50
2018-01-14T08:52:01.702Z,16.92
2018-01-14T08:54:27.913Z,16.65
2018-01-14T08:56:54.907Z,15.40
2018-01-14T09:09:06.236Z,13.48
2018-01-14T09:11:33.395Z,14.98
2018-01-14T09:14:00.266Z,13.05
2018-01-14T09:16:27.401Z,14.57
2018-01-14T09:18:53.638Z,14.80
2018-01-14T09:21:19.845Z,14.68
2018-01-14T09:23:46.077Z,14.40
2018-01-14T09:26:12.263Z,14.50
2018-01-14T09:28:39.267Z,13.82
2018-01-14T09:31:06.074Z,13.57
2018-01-14T09:33:32.340Z,14.30
2018-01-14T09:35:58.659Z,15.00
2018-01-14T09:38:24.922Z,14.70
2018-01-14T09:40:51.131Z,13.43
2018-01-14T09:43:17.412Z,14.63
2018-01-14T09:45:44.368Z,13.60
2018-01-14T09:48:10.609Z,12.90
2018-01-14T09:50:37.217Z,13.07
2018-01-14T09:53:03.642Z,12.70
2018-01-14T09:55:29.901Z,13.10
2018-01-14T09:57:56.113Z,15.10
2018-01-14T10:00:23.156Z,13.60
2018-01-14T10:02:50.919Z,13.00
2018-01-14T10:05:18.480Z,12.13
2018-01-14T10:07:44.751Z,15.10
2018-01-14T10:10:10.984Z,14.03
2018-01-14T10:12:37.210Z,13.43
2018-01-14T10:15:04.239Z,16.63
2018-01-14T10:17:30.501Z,13.13
2018-01-14T10:19:56.765Z,13.25
2018-01-14T10:22:23.030Z,13.70
2018-01-14T10:24:49.272Z,13.82
2018-01-14T10:27:16.527Z,12.33
2018-01-14T10:29:43.170Z,12.40
2018-01-14T10:32:10.354Z,12.07
2018-01-14T10:34:36.585Z,13.00
2018-01-14T10:37:02.818Z,12.37
2018-01-14T10:39:29.109Z,12.88
2018-01-14T10:41:56.254Z,13.10
2018-01-14T10:44:25.032Z,14.02
2018-01-14T10:46:53.327Z,14.07
2018-01-14T10:49:20.073Z,14.67
2018-01-14T10:51:46.310Z,13.50
2018-01-14T10:54:12.848Z,14.00
2018-01-14T10:56:39.155Z,14.67
2018-01-14T10:59:05.492Z,12.60
2018-01-14T11:01:31.697Z,14.30
2018-01-14T11:03:59.454Z,12.48
2018-01-14T11:06:26.391Z,12.23
2018-01-14T11:08:52.593Z,12.00
2018-01-14T11:11:18.814Z,13.03
2018-01-14T11:13:44.982Z,12.70
2018-01-14T11:16:11.985Z,15.40
2018-01-14T11:18:38.185Z,13.20
2018-01-14T11:21:04.377Z,12.37
2018-01-14T11:23:30.567Z,13.60
2018-01-14T11:25:56.818Z,12.53
2018-01-14T11:28:26.867Z,10.10
2018-01-14T11:30:53.904Z,11.43
2018-01-14T11:33:20.844Z,13.37
2018-01-14T11:35:47.054Z,10.90
2018-01-14T11:38:13.254Z,12.60
2018-01-14T11:40:39.479Z,11.47
2018-01-14T11:43:05.758Z,10.73
2018-01-14T11:45:37.400Z,11.73
2018-01-14T11:48:05.330Z,12.60
2018-01-14T11:50:33.754Z,12.27
2018-01-14T11:53:00.944Z,12.10
2018-01-14T11:55:27.190Z,13.43
2018-01-14T11:57:53.418Z,12.30
2018-01-14T12:00:19.733Z,12.63
2018-01-14T12:02:46.684Z,11.90
2018-01-14T12:05:13.662Z,11.97
2018-01-14T12:07:40.238Z,14.00
2018-01-14T12:10:08.360Z,11.77
2018-01-14T12:12:35.374Z,13.33
2018-01-14T12:15:02.335Z,10.47
2018-01-14T12:17:28.575Z,11.80
2018-01-14T12:19:54.847Z,11.17
2018-01-14T12:22:21.085Z,13.13
2018-01-14T12:24:48.454Z,11.80
2018-01-14T12:27:14.759Z,14.50
2018-01-14T12:29:40.988Z,12.47
2018-01-14T12:32:07.261Z,11.70
2018-01-14T12:34:39.664Z,12.07
2018-01-14T12:37:05.881Z,12.50
2018-01-14T12:39:32.092Z,11.23
2018-01-14T12:41:59.143Z,10.33
2018-01-14T12:44:27.553Z,10.97
2018-01-14T12:46:54.444Z,12.33
2018-01-14T12:49:20.956Z,12.87
2018-01-14T12:51:48.135Z,12.77
2018-01-14T12:54:15.197Z,12.07
2018-01-14T12:56:42.263Z,13.27
2018-01-14T12:59:10.144Z,11.67
2018-01-14T13:01:38.301Z,13.33
2018-01-14T13:04:05.786Z,13.23
2018-01-14T13:06:31.999Z,11.83
2018-01-14T13:08:58.351Z,10.87
2018-01-14T13:11:25.000Z,11.90
2018-01-14T13:13:52.095Z,10.40
2018-01-14T13:16:19.047Z,12.30
2018-01-14T13:18:46.922Z,11.70
2018-01-14T13:21:13.762Z,12.60
2018-01-14T13:23:41.892Z,12.50
2018-01-14T13:26:08.215Z,12.33
2018-01-14T13:38:24.432Z,10.67
2018-01-14T13:40:52.396Z,11.40
2018-01-14T13:43:19.872Z,11.47
2018-01-14T13:45:49.022Z,11.10
2018-01-14T13:48:16.912Z,11.67
2018-01-14T13:50:43.798Z,12.00
2018-01-14T13:53:10.116Z,12.20
2018-01-14T13:55:36.944Z,13.00
2018-01-14T13:58:04.733Z,11.53
2018-01-14T14:00:31.295Z,11.57
2018-01-14T14:02:59.503Z,11.83
2018-01-14T14:05:28.009Z,11.30
2018-01-14T14:07:55.081Z,12.80
2018-01-14T14:10:21.619Z,11.60
2018-01-14T14:12:49.358Z,12.43
2018-01-14T14:15:15.641Z,12.50
2018-01-14T14:17:43.546Z,12.40
2018-01-14T14:20:12.307Z,11.07
2018-01-14T14:22:38.601Z,10.33
2018-01-14T14:25:06.747Z,10.33
2018-01-14T14:27:32.988Z,12.23
2018-01-14T14:30:02.297Z,12.57
2018-01-14T14:32:29.481Z,10.90
2018-01-14T14:34:56.518Z,13.37
2018-01-14T14:37:23.330Z,12.80
2018-01-14T14:39:50.234Z,12.77
2018-01-14T14:42:16.560Z,11.83
2018-01-14T14:44:43.677Z,11.60
2018-01-14T14:47:09.995Z,11.33
2018-01-14T14:49:36.606Z,11.40
2018-01-14T14:52:04.735Z,11.47
2018-01-14T14:54:30.935Z,11.90
2018-01-14T14:56:59.006Z,11.90
2018-01-14T14:59:26.257Z,11.20
2018-01-14T15:01:53.377Z,10.40
2018-01-14T15:04:20.970Z,9.80
2018-01-14T15:06:48.424Z,10.33
2018-01-14T15:09:14.706Z,10.10
2018-01-14T15:11:40.927Z,11.30
2018-01-14T15:14:07.349Z,11.83
2018-01-14T15:16:34.673Z,11.77
2018-01-14T15:19:01.598Z,12.13
2018-01-14T15:21:30.506Z,11.70
2018-01-14T15:24:02.071Z,11.67
2018-01-14T15:26:31.098Z,12.20
2018-01-14T15:28:57.419Z,11.43
2018-01-14T15:31:25.721Z,12.63
2018-01-14T15:33:55.326Z,11.80
2018-01-14T15:36:22.155Z,11.60
2018-01-14T15:38:48.460Z,11.60
2018-01-14T15:41:14.660Z,10.23
2018-01-14T15:43:43.364Z,11.37
2018-01-14T15:46:12.431Z,10.03
2018-01-14T15:48:39.452Z,10.07
2018-01-14T15:51:07.032Z,12.20
2018-01-14T15:53:35.735Z,11.50
2018-01-14T15:56:04.098Z,10.70
2018-01-14T15:58:30.340Z,11.20
2018-01-14T16:00:57.646Z,12.43
2018-01-14T16:03:24.887Z,11.90
2018-01-14T16:05:51.865Z,10.77
2018-01-14T16:08:18.021Z,11.63
2018-01-14T16:10:45.038Z,11.67
2018-01-14T16:13:12.214Z,11.73
2018-01-14T16:15:39.199Z,11.80
2018-01-14T16:18:05.426Z,12.10
2018-01-14T16:20:31.603Z,11.40
2018-01-14T16:22:59.635Z,12.43
2018-01-14T16:25:25.866Z,11.20
2018-01-14T16:27:53.272Z,12.10
2018-01-14T16:30:22.640Z,12.47
2018-01-14T16:32:49.829Z,11.50
2018-01-14T16:35:19.129Z,12.10
2018-01-14T16:37:50.665Z,12.97
2018-01-14T16:40:16.866Z,12.17
2018-01-14T16:42:43.140Z,12.17
2018-01-14T16:45:09.384Z,12.53
2018-01-14T16:47:36.545Z,12.77
2018-01-14T16:50:05.005Z,11.77
2018-01-14T16:52:33.628Z,12.67
2018-01-14T16:55:01.670Z,13.80
2018-01-14T16:57:29.485Z,12.20
2018-01-14T16:59:56.464Z,12.23
2018-01-14T17:02:23.339Z,11.27
2018-01-14T17:04:50.317Z,11.97
2018-01-14T17:07:18.063Z,12.67
2018-01-14T17:09:45.147Z,12.30
2018-01-14T17:12:12.955Z,11.83
2018-01-14T17:14:41.741Z,13.13
2018-01-14T17:17:09.530Z,12.33
2018-01-14T17:19:35.710Z,11.67
2018-01-14T17:22:05.097Z,12.53
2018-01-14T17:24:31.665Z,15.90
2018-01-14T17:26:57.903Z,13.20
2018-01-14T17:29:25.725Z,14.47
2018-01-14T17:31:54.954Z,13.43
2018-01-14T17:34:21.997Z,13.17
2018-01-14T17:36:49.451Z,12.50
2018-01-14T17:39:15.649Z,13.23
2018-01-14T17:41:42.839Z,13.03
2018-01-14T17:44:09.043Z,12.27
2018-01-14T17:46:36.116Z,13.63
2018-01-14T17:49:02.451Z,12.00
2018-01-14T17:51:29.530Z,13.10
2018-01-14T17:53:56.755Z,14.10
2018-01-14T17:56:25.354Z,15.73
2018-01-14T17:58:52.393Z,15.03
2018-01-14T18:01:19.407Z,15.70
2018-01-14T18:13:36.679Z,13.60
2018-01-14T18:16:02.990Z,13.67
2018-01-14T18:18:31.127Z,14.70
2018-01-14T18:20:59.952Z,14.35
2018-01-14T18:23:26.145Z,14.13
2018-01-14T18:25:54.818Z,15.10
2018-01-14T18:28:22.792Z,15.75
2018-01-14T18:30:51.573Z,15.27
2018-01-14T18:33:18.782Z,15.68
2018-01-14T18:35:47.440Z,14.17
2018-01-14T18:38:14.034Z,15.27
2018-01-14T18:40:41.136Z,14.50
2018-01-14T18:43:09.134Z,12.50
2018-01-14T18:45:48.171Z,14.60
2018-01-14T18:48:15.001Z,15.00
2018-01-14T18:50:42.187Z,15.05
2018-01-14T18:53:09.439Z,14.73
2018-01-14T18:55:35.650Z,14.85
2018-01-14T18:58:03.965Z,14.80
2018-01-14T19:00:30.976Z,14.77
2018-01-14T19:02:57.805Z,13.50
2018-01-14T19:05:24.771Z,13.70
2018-01-14T19:07:52.677Z,13.27
2018-01-14T19:10:20.611Z,15.00
2018-01-14T19:12:46.838Z,14.80
2018-01-14T19:28:18.133Z,14.55
2018-01-14T19:30:45.227Z,14.70
2018-01-14T19:33:11.472Z,17.62
2018-01-14T19:35:38.320Z,15.55
2018-01-14T19:38:08.010Z,13.90
2018-01-14T19:40:34.280Z,15.95
2018-01-14T19:43:03.133Z,13.85
2018-01-14T19:45:29.791Z,15.33
2018-01-14T19:47:57.543Z,14.05
2018-01-14T19:50:25.684Z,14.55
2018-01-14T19:52:55.478Z,14.73
2018-01-14T19:55:21.681Z,13.60
2018-01-14T19:57:50.653Z,14.15
2018-01-14T20:00:19.939Z,14.00
2018-01-14T20:02:47.992Z,14.50
2018-01-14T20:05:14.959Z,15.63
2018-01-14T20:07:42.251Z,15.35
2018-01-14T20:13:03.243Z,14.65
2018-01-14T20:15:31.466Z,14.35
2018-01-14T20:17:58.417Z,14.10
2018-01-14T20:20:27.243Z,15.25
2018-01-14T20:22:54.829Z,15.55
2018-01-14T20:25:21.892Z,13.43
2018-01-14T20:27:49.081Z,12.63
2018-01-14T20:30:16.043Z,12.00
2018-01-14T20:32:43.336Z,14.43
2018-01-14T20:35:18.900Z,14.73
2018-01-14T20:38:18.829Z,12.68
2018-01-14T20:40:46.294Z,13.98
2018-01-14T20:43:13.326Z,13.70
2018-01-14T20:45:40.321Z,13.13
2018-01-14T20:48:06.562Z,13.52
2018-01-14T20:50:33.308Z,12.82
2018-01-14T20:53:00.773Z,12.75
2018-01-14T20:55:27.132Z,13.00
2018-01-14T20:57:56.902Z,12.98
2018-01-14T21:00:23.889Z,13.30
2018-01-14T21:02:51.031Z,12.20
2018-01-14T21:05:19.164Z,14.05
2018-01-14T21:07:46.491Z,14.23
2018-01-14T21:10:13.582Z,13.50
2018-01-14T21:12:41.857Z,14.57
2018-01-14T21:15:09.838Z,13.13
2018-01-14T21:17:36.085Z,14.00
2018-01-14T21:20:06.044Z,13.20
2018-01-14T21:22:32.335Z,13.70
2018-01-14T21:25:00.186Z,14.82
2018-01-14T21:37:18.494Z,14.10
2018-01-14T21:39:44.743Z,11.90
2018-01-14T21:42:11.730Z,12.45
2018-01-14T21:44:40.102Z,13.77
2018-01-14T21:47:07.710Z,14.02
2018-01-14T21:49:34.836Z,13.55
2018-01-14T21:52:02.054Z,14.10
2018-01-14T21:54:28.417Z,13.70
2018-01-14T21:56:56.586Z,16.40
2018-01-14T21:59:23.592Z,14.85
2018-01-14T22:01:50.797Z,14.40
2018-01-14T22:04:19.987Z,12.50
2018-01-14T22:06:48.460Z,14.05
2018-01-14T22:09:14.793Z,14.95
2018-01-14T22:11:41.800Z,14.07
2018-01-14T22:14:10.842Z,14.98
2018-01-14T22:16:38.092Z,13.98
2018-01-14T22:19:04.418Z,14.75
2018-01-14T22:21:31.411Z,14.68
2018-01-14T22:23:58.272Z,15.77
2018-01-14T22:26:25.267Z,13.73
2018-01-14T22:28:52.995Z,15.88
2018-01-14T22:31:20.704Z,14.70
2018-01-14T22:33:48.028Z,13.98
2018-01-14T22:36:15.290Z,14.70
2018-01-14T22:38:41.916Z,13.62
2018-01-14T22:41:08.960Z,13.90
2018-01-14T22:43:36.411Z,13.98
2018-01-14T22:46:04.333Z,13.40
2018-01-14T22:48:30.566Z,14.80
2018-01-14T22:50:57.611Z,12.65
2018-01-14T22:53:24.518Z,14.07
2018-01-14T22:55:52.736Z,14.57
2018-01-14T22:58:21.415Z,14.73
2018-01-14T23:00:48.543Z,14.23
2018-01-14T23:03:14.783Z,14.15
2018-01-14T23:05:40.972Z,14.35
2018-01-14T23:08:08.727Z,14.10
2018-01-14T23:10:35.083Z,13.60
2018-01-14T23:13:02.024Z,12.50
2018-01-14T23:15:30.682Z,14.75
2018-01-14T23:17:58.626Z,14.82
2018-01-14T23:20:26.083Z,13.65
2018-01-14T23:22:52.542Z,15.52
2018-01-14T23:25:20.474Z,13.45
2018-01-14T23:27:46.913Z,12.60
2018-01-14T23:30:13.910Z,13.05
2018-01-14T23:32:42.066Z,14.38
2018-01-14T23:35:13.252Z,13.95
2018-01-14T23:37:40.183Z,12.00
2018-01-14T23:40:08.178Z,11.82
2018-01-14T23:42:35.525Z,11.82
2018-01-14T23:45:02.607Z,12.70
2018-01-14T23:47:29.809Z,13.50
2018-01-14T23:49:56.720Z,12.75
2018-01-14T23:52:24.390Z,13.62
2018-01-14T23:54:52.344Z,14.45
2018-01-14T23:57:19.319Z,14.30
2018-01-14T23:59:47.304Z,12.60
